Time;durP1;ratioP1;P1;durP2;ratioP2;P2;SDS_P1;SDS_P2;PMS_P1;PMS_P2;Temp;Humidity;BMP_temperature;BMP_pressure;BME280_temperature;BME280_humidity;BME280_pressure;Samples;Min_cycle;Max_cycle;Signal;HPM_P1;HPM_P2
2021/07/04 00:00:37;;;;;;;8.73;6.85;;;;;;;15.14;78.17;96301.41;1684425;84;20937;-80
2021/07/04 00:03:05;;;;;;;9.15;6.42;;;;;;;15.10;78.18;96292.86;1685091;84;21008;-79
2021/07/04 00:05:35;;;;;;;8.95;6.22;;;;;;;15.07;78.16;96299.83;1697932;84;20905;-80
2021/07/04 00:08:01;;;;;;;8.78;6.40;;;;;;;15.04;78.19;96295.02;1661249;84;20920;-80
2021/07/04 00:10:31;;;;;;;7.87;5.78;;;;;;;14.89;78.41;96277.80;1700659;84;21008;-80
2021/07/04 00:13:04;;;;;;;6.97;6.28;;;;;;;14.95;78.47;96294.46;1687112;84;20972;-81
2021/07/04 00:15:34;;;;;;;9.10;6.65;;;;;;;14.93;78.38;96290.75;1685709;84;21057;-80
2021/07/04 00:17:59;;;;;;;7.62;5.65;;;;;;;14.93;78.36;96293.36;1693103;84;20988;-80
2021/07/04 00:20:25;;;;;;;6.90;6.20;;;;;;;14.91;78.44;96290.16;1702741;84;20944;-80
2021/07/04 00:22:54;;;;;;;9.95;7.20;;;;;;;14.87;78.51;96294.22;1691580;84;20925;-80
2021/07/04 00:25:19;;;;;;;9.48;6.78;;;;;;;14.85;78.81;96292.83;1696410;84;21044;-81
2021/07/04 00:27:46;;;;;;;8.55;6.25;;;;;;;14.82;78.99;96285.41;1697286;84;20976;-80
2021/07/04 00:30:13;;;;;;;7.65;6.08;;;;;;;14.80;79.18;96288.20;1665185;85;20983;-80
2021/07/04 00:32:39;;;;;;;7.22;6.30;;;;;;;14.80;79.16;96287.41;1697350;84;21015;-80
2021/07/04 00:35:07;;;;;;;8.00;5.92;;;;;;;14.81;79.21;96286.42;1694307;84;20941;-80
2021/07/04 00:37:33;;;;;;;10.08;6.72;;;;;;;14.79;79.20;96287.11;1692965;84;20941;-80
2021/07/04 00:40:00;;;;;;;7.42;6.60;;;;;;;14.79;79.28;96287.11;1688132;84;20944;-81
2021/07/04 00:42:27;;;;;;;8.10;7.15;;;;;;;14.77;79.30;96284.70;1683842;84;20995;-80
2021/07/04 00:44:53;;;;;;;9.35;6.62;;;;;;;14.76;79.34;96279.19;1688636;84;21068;-80
2021/07/04 00:47:20;;;;;;;8.30;6.50;;;;;;;14.71;79.45;96273.79;1685818;84;21291;-79
2021/07/04 00:49:47;;;;;;;7.72;6.67;;;;;;;14.67;79.62;96278.64;1697214;84;20972;-80
2021/07/04 00:52:14;;;;;;;7.50;6.60;;;;;;;14.69;79.59;96278.43;1695862;84;20952;-80
2021/07/04 00:54:40;;;;;;;7.28;6.50;;;;;;;14.68;79.77;96271.60;1669378;84;20964;-80
2021/07/04 00:57:06;;;;;;;7.92;6.03;;;;;;;14.69;79.72;96273.20;1688612;84;20996;-80
2021/07/04 00:59:32;;;;;;;8.18;6.20;;;;;;;14.70;79.86;96272.19;1672201;85;20985;-79
2021/07/04 01:01:59;;;;;;;8.25;5.90;;;;;;;14.69;79.86;96268.77;1677387;84;21053;-79
2021/07/04 01:04:27;;;;;;;7.70;6.42;;;;;;;14.67;79.74;96272.11;1668791;85;20952;-80
2021/07/04 01:06:53;;;;;;;8.95;6.87;;;;;;;14.66;79.92;96265.27;1695239;84;20936;-79
2021/07/04 01:09:19;;;;;;;9.28;7.62;;;;;;;14.64;80.15;96273.01;1665537;84;21476;-79
2021/07/04 01:11:47;;;;;;;9.80;6.87;;;;;;;14.60;80.24;96270.02;1690875;84;20961;-80
2021/07/04 01:14:16;;;;;;;8.68;6.25;;;;;;;14.58;80.20;96269.42;1687145;85;21083;-80
2021/07/04 01:16:42;;;;;;;7.65;6.50;;;;;;;14.57;80.21;96267.02;1675888;85;20951;-79
2021/07/04 01:19:08;;;;;;;7.15;6.45;;;;;;;14.56;80.22;96260.99;1681706;84;21002;-79
2021/07/04 01:21:35;;;;;;;9.93;6.55;;;;;;;14.57;80.19;96262.59;1661797;84;20991;-79
2021/07/04 01:24:02;;;;;;;10.30;6.80;;;;;;;14.56;80.15;96270.14;1658566;85;21055;-79
2021/07/04 01:26:29;;;;;;;7.22;6.53;;;;;;;14.57;80.20;96268.33;1680090;82;21035;-80
2021/07/04 01:28:55;;;;;;;9.73;7.45;;;;;;;14.58;80.26;96267.32;1683721;83;20996;-79
2021/07/04 01:31:21;;;;;;;9.55;7.35;;;;;;;14.58;80.42;96264.20;1674727;85;20928;-80
2021/07/04 01:33:49;;;;;;;7.80;6.67;;;;;;;14.56;80.27;96264.91;1690304;85;21019;-80
2021/07/04 01:36:15;;;;;;;8.13;6.25;;;;;;;14.48;80.27;96256.50;1678913;85;21060;-80
2021/07/04 01:38:41;;;;;;;8.53;6.12;;;;;;;14.53;80.21;96260.62;1680117;85;21040;-80
2021/07/04 01:41:07;;;;;;;7.85;6.37;;;;;;;14.51;80.34;96266.56;1679260;82;20991;-80
2021/07/04 01:43:33;;;;;;;8.88;6.58;;;;;;;14.48;80.37;96266.95;1676449;82;21022;-81
2021/07/04 01:45:59;;;;;;;7.62;5.90;;;;;;;14.46;80.32;96267.16;1678812;82;20959;-80
2021/07/04 01:48:26;;;;;;;7.62;6.58;;;;;;;14.47;80.27;96268.77;1681867;85;20890;-80
2021/07/04 01:50:54;;;;;;;8.48;6.62;;;;;;;14.47;80.29;96268.77;1677927;82;20967;-80
2021/07/04 01:53:20;;;;;;;8.90;7.15;;;;;;;14.47;80.30;96267.46;1672566;82;21024;-80
2021/07/04 01:55:46;;;;;;;9.33;7.50;;;;;;;14.45;80.42;96265.56;1682908;85;20968;-80
2021/07/04 01:58:14;;;;;;;6.95;6.20;;;;;;;14.42;80.49;96267.27;1686472;82;21014;-80
2021/07/04 02:00:40;;;;;;;8.68;6.20;;;;;;;14.40;80.55;96270.59;1675274;82;20987;-81
2021/07/04 02:03:11;;;;;;;8.00;6.62;;;;;;;14.39;80.69;96271.10;1671942;85;21016;-80
2021/07/04 02:05:38;;;;;;;10.45;6.92;;;;;;;14.37;80.70;96272.32;1683902;82;20977;-80
2021/07/04 02:08:05;;;;;;;11.15;6.67;;;;;;;14.37;80.73;96269.20;1673186;84;21008;-80
2021/07/04 02:10:35;;;;;;;9.80;7.17;;;;;;;14.38;80.74;96264.27;1680103;84;20963;-80
2021/07/04 02:13:02;;;;;;;7.97;7.17;;;;;;;14.41;80.91;96261.23;1648078;85;21038;-80
2021/07/04 02:15:31;;;;;;;8.73;7.30;;;;;;;14.42;80.93;96263.34;1651918;86;21038;-80
2021/07/04 02:17:57;;;;;;;10.60;7.78;;;;;;;14.41;80.92;96263.84;1647808;86;20983;-80
2021/07/04 02:20:35;;;;;;;9.05;7.05;;;;;;;14.39;80.97;96269.80;1629649;84;21101;-80
2021/07/04 02:23:15;;;;;;;9.73;6.65;;;;;;;14.40;81.00;96266.16;1654714;86;21010;-80
2021/07/04 02:25:43;;;;;;;10.25;6.87;;;;;;;14.42;81.03;96256.30;1649408;86;21019;-80
2021/07/04 02:28:10;;;;;;;8.25;6.67;;;;;;;14.45;80.80;96266.87;1649214;84;21034;-81
2021/07/04 02:30:37;;;;;;;9.05;6.20;;;;;;;14.48;80.76;96257.80;1657021;86;20990;-80
2021/07/04 02:33:07;;;;;;;9.03;7.72;;;;;;;14.48;80.70;96256.02;1655732;83;20974;-80
2021/07/04 02:35:42;;;;;;;9.75;8.28;;;;;;;14.47;80.72;96260.92;1650654;86;20915;-81
2021/07/04 02:38:08;;;;;;;9.80;6.95;;;;;;;14.47;80.85;96258.81;1648300;86;21037;-80
2021/07/04 02:40:35;;;;;;;8.65;6.87;;;;;;;14.46;80.83;96265.06;1645230;86;20996;-80
2021/07/04 02:43:01;;;;;;;10.30;7.28;;;;;;;14.46;80.98;96265.86;1654978;86;20991;-80
2021/07/04 02:45:30;;;;;;;8.75;7.28;;;;;;;14.45;80.83;96265.56;1646841;86;20995;-80
2021/07/04 02:47:56;;;;;;;8.55;7.60;;;;;;;14.48;80.82;96270.88;1641165;86;21510;-80
2021/07/04 02:50:23;;;;;;;10.50;7.85;;;;;;;14.49;80.83;96273.81;1642165;86;20964;-80
2021/07/04 02:52:50;;;;;;;10.13;7.78;;;;;;;14.49;81.00;96274.62;1647087;86;21027;-80
2021/07/04 02:55:18;;;;;;;9.28;7.85;;;;;;;14.47;80.92;96281.84;1652475;86;20947;-82
2021/07/04 02:57:45;;;;;;;10.88;7.80;;;;;;;14.48;80.99;96282.16;1615294;86;21015;-80
2021/07/04 03:00:15;;;;;;;10.32;7.53;;;;;;;14.49;80.95;96282.46;1644116;86;21206;-80
2021/07/04 03:02:41;;;;;;;8.33;6.53;;;;;;;14.50;80.89;96281.95;1638700;86;21067;-80
2021/07/04 03:05:08;;;;;;;10.00;6.83;;;;;;;14.46;80.98;96280.23;1641843;86;20992;-80
2021/07/04 03:07:35;;;;;;;8.18;7.08;;;;;;;14.46;81.00;96287.28;1652472;86;21003;-80
2021/07/04 03:10:04;;;;;;;9.88;7.78;;;;;;;14.48;81.09;96290.48;1646108;86;21063;-81
2021/07/04 03:12:30;;;;;;;9.70;7.83;;;;;;;14.47;81.13;96290.19;1619024;87;20944;-80
2021/07/04 03:14:56;;;;;;;9.10;7.00;;;;;;;14.47;81.11;96298.83;1626647;87;21033;-80
2021/07/04 03:17:23;;;;;;;10.03;7.67;;;;;;;14.46;81.30;96297.73;1629188;86;21020;-80
2021/07/04 03:19:49;;;;;;;8.20;7.10;;;;;;;14.46;81.28;96302.96;1634133;87;20955;-80
2021/07/04 03:22:15;;;;;;;8.08;6.95;;;;;;;14.48;81.16;96306.17;1636286;85;21035;-81
2021/07/04 03:24:41;;;;;;;10.38;7.53;;;;;;;14.49;81.11;96302.58;1629963;87;21032;-80
2021/07/04 03:27:08;;;;;;;9.23;6.67;;;;;;;14.53;81.14;96302.45;1642281;87;20940;-81
2021/07/04 03:29:34;;;;;;;9.30;6.83;;;;;;;14.54;81.15;96306.16;1637414;87;20980;-80
2021/07/04 03:32:01;;;;;;;8.08;7.28;;;;;;;14.56;81.20;96305.44;1639346;86;21016;-80
2021/07/04 03:34:27;;;;;;;9.38;7.78;;;;;;;14.59;81.16;96301.61;1649622;86;21096;-80
2021/07/04 03:36:53;;;;;;;10.75;7.92;;;;;;;14.60;81.08;96307.93;1638682;86;21298;-79
2021/07/04 03:39:19;;;;;;;9.03;7.87;;;;;;;14.59;81.13;96308.14;1641525;86;21262;-80
2021/07/04 03:41:45;;;;;;;7.67;6.83;;;;;;;14.58;81.20;96309.16;1638052;84;21122;-80
2021/07/04 03:44:11;;;;;;;9.63;7.20;;;;;;;14.57;81.18;96309.66;1608265;86;21000;-80
2021/07/04 03:46:38;;;;;;;9.80;7.10;;;;;;;14.58;81.44;96320.92;1637145;86;20991;-80
2021/07/04 03:49:04;;;;;;;7.92;7.05;;;;;;;14.59;81.62;96320.71;1640020;86;20952;-80
2021/07/04 03:51:30;;;;;;;9.58;7.00;;;;;;;14.58;81.65;96321.72;1649351;86;20968;-80
2021/07/04 03:53:57;;;;;;;9.20;7.10;;;;;;;14.60;81.72;96329.36;1644680;86;20963;-81
2021/07/04 03:56:23;;;;;;;8.90;7.30;;;;;;;14.63;81.72;96321.09;1643832;85;21064;-80
2021/07/04 03:58:49;;;;;;;9.15;8.08;;;;;;;14.61;81.85;96321.30;1644817;86;20971;-79
2021/07/04 04:01:19;;;;;;;10.08;7.50;;;;;;;14.68;81.87;96325.21;1653605;86;20948;-80
2021/07/04 04:03:47;;;;;;;10.23;7.20;;;;;;;14.69;82.09;96325.50;1629549;87;20972;-80
2021/07/04 04:06:14;;;;;;;8.35;7.10;;;;;;;14.67;82.17;96334.06;1627611;88;21039;-81
2021/07/04 04:08:41;;;;;;;9.40;6.80;;;;;;;14.67;82.16;96332.25;1647009;86;20923;-80
2021/07/04 04:11:07;;;;;;;7.72;6.92;;;;;;;14.70;82.08;96331.03;1645587;86;20936;-80
2021/07/04 04:13:33;;;;;;;8.53;7.33;;;;;;;14.69;82.08;96328.92;1648285;86;20983;-80
2021/07/04 04:15:59;;;;;;;9.10;7.45;;;;;;;14.70;82.10;96329.22;1652336;86;21046;-80
2021/07/04 04:18:25;;;;;;;8.20;6.25;;;;;;;14.74;82.14;96330.10;1601259;87;20969;-80
2021/07/04 04:20:51;;;;;;;8.60;7.67;;;;;;;14.79;82.11;96325.03;1623421;87;20936;-80
2021/07/04 04:23:17;;;;;;;12.78;8.45;;;;;;;14.83;82.07;96315.27;1617167;87;21028;-80
2021/07/04 04:25:43;;;;;;;10.53;7.78;;;;;;;14.82;82.61;96311.56;1634017;87;21005;-80
2021/07/04 04:28:09;;;;;;;8.60;7.70;;;;;;;14.80;82.61;96305.72;1652649;86;20943;-80
2021/07/04 04:30:35;;;;;;;9.35;7.58;;;;;;;14.85;82.71;96313.25;1626968;86;21375;-80
2021/07/04 04:33:02;;;;;;;10.68;7.78;;;;;;;14.87;82.89;96304.69;1613803;88;21046;-79
2021/07/04 04:35:29;;;;;;;9.48;7.55;;;;;;;14.94;82.85;96308.05;1642211;86;20978;-80
2021/07/04 04:37:56;;;;;;;9.13;7.33;;;;;;;14.99;82.99;96303.52;1615972;88;21012;-80
2021/07/04 04:40:22;;;;;;;8.78;7.62;;;;;;;15.03;83.02;96303.89;1645974;86;21203;-81
2021/07/04 04:42:48;;;;;;;8.05;7.25;;;;;;;15.04;83.03;96307.59;1654055;86;20994;-80
2021/07/04 04:45:14;;;;;;;9.23;7.17;;;;;;;15.09;83.21;96301.72;1618214;88;20979;-80
2021/07/04 04:47:39;;;;;;;11.68;6.97;;;;;;;15.13;83.27;96298.49;1622961;88;21031;-80
2021/07/04 04:50:06;;;;;;;11.28;7.75;;;;;;;15.20;83.13;96293.20;1642684;87;20988;-80
2021/07/04 04:52:32;;;;;;;11.20;7.40;;;;;;;15.28;83.15;96289.80;1644220;87;20984;-80
2021/07/04 04:54:58;;;;;;;11.30;8.93;;;;;;;15.34;83.06;96293.91;1641052;87;21036;-80
2021/07/04 04:57:24;;;;;;;10.65;8.93;;;;;;;15.39;83.12;96294.86;1644247;85;21000;-80
2021/07/04 04:59:49;;;;;;;10.38;8.15;;;;;;;15.41;83.22;96294.64;1651344;86;20970;-80
2021/07/04 05:02:15;;;;;;;12.30;9.20;;;;;;;15.44;83.12;96300.76;1641401;86;21026;-80
2021/07/04 05:04:41;;;;;;;10.18;7.62;;;;;;;15.49;82.92;96295.70;1628032;87;20979;-80
2021/07/04 05:07:07;;;;;;;8.53;7.60;;;;;;;15.52;83.05;96290.83;1648969;86;20983;-80
2021/07/04 05:09:34;;;;;;;9.65;8.65;;;;;;;15.57;83.03;96298.03;1652243;86;20954;-80
2021/07/04 05:12:02;;;;;;;11.50;9.85;;;;;;;15.64;82.72;96302.75;1656774;86;20937;-80
2021/07/04 05:14:27;;;;;;;10.90;8.73;;;;;;;15.69;82.23;96302.91;1659878;85;21111;-80
2021/07/04 05:16:53;;;;;;;12.35;11.05;;;;;;;15.73;82.31;96304.58;1657530;85;21001;-80
2021/07/04 05:19:19;;;;;;;15.58;11.70;;;;;;;15.77;81.45;96304.43;1660305;85;20921;-80
2021/07/04 05:21:44;;;;;;;14.87;11.48;;;;;;;15.82;81.19;96301.98;1671910;85;20948;-81
2021/07/04 05:24:11;;;;;;;15.15;10.00;;;;;;;15.91;80.79;96304.09;1668107;85;20951;-80
2021/07/04 05:26:38;;;;;;;12.60;10.08;;;;;;;16.01;80.68;96304.91;1664839;85;21029;-81
2021/07/04 05:29:04;;;;;;;15.13;11.80;;;;;;;16.10;80.71;96304.09;1656561;86;21050;-81
2021/07/04 05:31:30;;;;;;;10.75;8.63;;;;;;;16.09;80.15;96295.95;1658581;86;21023;-80
2021/07/04 05:33:56;;;;;;;9.40;8.25;;;;;;;16.22;80.29;96310.23;1658892;86;21004;-80
2021/07/04 05:36:22;;;;;;;10.85;8.50;;;;;;;16.26;80.70;96302.20;1638025;86;20937;-80
2021/07/04 05:38:48;;;;;;;13.32;10.70;;;;;;;16.30;80.73;96294.22;1636869;86;21011;-80
2021/07/04 05:41:14;;;;;;;13.22;11.22;;;;;;;16.36;79.96;96301.70;1665274;85;20984;-80
2021/07/04 05:43:43;;;;;;;14.43;11.03;;;;;;;16.39;79.42;96300.75;1663462;85;21036;-80
2021/07/04 05:46:09;;;;;;;15.48;12.47;;;;;;;16.43;79.35;96305.04;1655932;85;21068;-81
2021/07/04 05:48:35;;;;;;;14.45;11.70;;;;;;;16.44;79.14;96298.29;1648988;86;20923;-80
2021/07/04 05:51:01;;;;;;;19.15;13.22;;;;;;;16.50;78.91;96303.16;1617431;87;20978;-81
2021/07/04 05:53:27;;;;;;;16.32;12.00;;;;;;;16.52;78.88;96306.35;1647353;86;21045;-80
2021/07/04 05:55:53;;;;;;;15.45;12.15;;;;;;;16.60;78.63;96306.06;1649568;86;21049;-80
2021/07/04 05:58:20;;;;;;;17.02;11.55;;;;;;;16.69;78.27;96300.02;1660733;85;21039;-80
2021/07/04 06:00:46;;;;;;;12.58;10.68;;;;;;;16.76;77.85;96298.92;1659437;85;20948;-80
2021/07/04 06:03:11;;;;;;;14.47;11.68;;;;;;;16.83;78.16;96301.96;1667006;85;20996;-80
2021/07/04 06:05:37;;;;;;;14.58;11.80;;;;;;;16.87;77.89;96299.97;1670676;85;20969;-80
2021/07/04 06:08:03;;;;;;;11.60;10.40;;;;;;;16.93;77.75;96296.98;1662765;85;20984;-80
2021/07/04 06:10:29;;;;;;;13.62;11.20;;;;;;;17.01;77.77;96295.34;1630906;86;20999;-80
2021/07/04 06:12:55;;;;;;;14.03;11.70;;;;;;;17.08;77.17;96298.66;1659763;86;21002;-80
2021/07/04 06:15:21;;;;;;;13.22;10.32;;;;;;;17.15;76.46;96294.64;1653907;86;21010;-80
2021/07/04 06:17:55;;;;;;;15.08;12.07;;;;;;;17.21;76.65;96296.36;1635309;85;21094;-80
2021/07/04 06:20:21;;;;;;;14.13;12.33;;;;;;;17.24;76.27;96303.27;1636205;85;20988;-80
2021/07/04 06:22:47;;;;;;;14.95;12.13;;;;;;;17.27;76.20;96306.78;1625642;86;21019;-80
2021/07/04 06:25:13;;;;;;;15.75;13.50;;;;;;;17.29;76.27;96309.18;1633943;86;21016;-80
2021/07/04 06:27:39;;;;;;;14.47;12.63;;;;;;;17.37;76.27;96310.95;1621178;86;21047;-80
2021/07/04 06:30:09;;;;;;;14.43;11.60;;;;;;;17.31;76.27;96289.54;1638932;86;21001;-80
2021/07/04 06:32:36;;;;;;;17.62;12.80;;;;;;;17.52;76.38;96308.41;1621246;86;21043;-82
2021/07/04 06:35:04;;;;;;;15.20;13.35;;;;;;;17.59;75.84;96306.48;1644033;86;21036;-83
2021/07/04 06:37:29;;;;;;;16.62;14.10;;;;;;;17.65;75.65;96305.05;1631820;85;20997;-80
2021/07/04 06:39:55;;;;;;;15.72;13.35;;;;;;;17.72;75.50;96306.78;1657885;85;21020;-81
2021/07/04 06:42:21;;;;;;;18.30;13.83;;;;;;;17.74;74.84;96301.61;1629385;86;20980;-81
2021/07/04 06:44:47;;;;;;;14.43;12.20;;;;;;;17.78;75.42;96308.01;1634581;86;21076;-81
2021/07/04 06:47:12;;;;;;;14.07;11.68;;;;;;;17.87;75.15;96313.70;1650167;86;20934;-81
2021/07/04 06:49:38;;;;;;;14.25;11.53;;;;;;;17.96;75.14;96313.14;1642291;85;21311;-81
2021/07/04 06:52:04;;;;;;;14.68;11.53;;;;;;;18.06;75.14;96323.09;1641518;86;21036;-81
2021/07/04 06:54:31;;;;;;;15.20;11.68;;;;;;;18.11;75.08;96317.94;1638621;86;20989;-81
2021/07/04 06:56:56;;;;;;;15.55;12.60;;;;;;;18.18;75.00;96317.28;1636121;86;21006;-81
2021/07/04 06:59:22;;;;;;;13.05;10.98;;;;;;;18.24;74.08;96315.58;1625472;86;20978;-78
2021/07/04 07:01:48;;;;;;;13.80;11.20;;;;;;;18.33;74.54;96325.22;1652672;86;21008;-78
2021/07/04 07:04:14;;;;;;;13.10;11.00;;;;;;;18.41;74.14;96317.77;1636431;86;21024;-78
2021/07/04 07:06:41;;;;;;;9.73;8.63;;;;;;;18.52;73.52;96318.24;1624242;86;20996;-78
2021/07/04 07:09:06;;;;;;;12.93;11.33;;;;;;;18.60;73.91;96318.41;1643785;85;21297;-79
2021/07/04 07:11:32;;;;;;;12.53;10.35;;;;;;;18.61;72.91;96316.06;1646473;86;21079;-78
2021/07/04 07:13:58;;;;;;;15.23;11.08;;;;;;;18.68;73.05;96323.32;1649807;85;20898;-78
2021/07/04 07:16:23;;;;;;;12.50;10.43;;;;;;;18.78;72.90;96317.46;1639045;85;21000;-78
2021/07/04 07:18:49;;;;;;;13.40;11.88;;;;;;;18.85;73.16;96322.86;1649501;86;21261;-78
2021/07/04 07:21:15;;;;;;;13.20;10.60;;;;;;;18.86;72.29;96322.34;1649047;85;20960;-78
2021/07/04 07:23:40;;;;;;;12.88;10.08;;;;;;;18.83;72.33;96322.81;1648280;86;20882;-79
2021/07/04 07:26:06;;;;;;;12.40;9.05;;;;;;;18.80;71.78;96320.66;1649698;86;21060;-79
2021/07/04 07:28:32;;;;;;;14.98;10.48;;;;;;;18.84;71.55;96318.63;1644868;85;21337;-79
2021/07/04 07:30:58;;;;;;;10.93;8.78;;;;;;;19.00;71.13;96322.34;1668658;85;20997;-79
2021/07/04 07:33:23;;;;;;;11.10;8.70;;;;;;;19.15;71.44;96321.30;1650211;85;21066;-77
2021/07/04 07:35:51;;;;;;;11.38;8.53;;;;;;;19.19;70.47;96319.78;1649218;86;21337;-77
2021/07/04 07:38:19;;;;;;;13.95;11.10;;;;;;;19.07;70.31;96320.89;1625422;86;21069;-76
2021/07/04 07:40:44;;;;;;;13.28;8.95;;;;;;;19.05;70.00;96329.03;1636779;86;21320;-76
2021/07/04 07:43:11;;;;;;;10.45;8.10;;;;;;;19.13;69.03;96322.05;1639251;86;21073;-76
2021/07/04 07:45:39;;;;;;;10.55;8.60;;;;;;;19.21;70.33;96320.09;1643832;86;21080;-77
2021/07/04 07:48:04;;;;;;;9.48;8.35;;;;;;;19.33;69.79;96324.75;1639317;86;21045;-77
2021/07/04 07:50:30;;;;;;;9.15;8.20;;;;;;;19.45;68.79;96320.22;1637462;86;21291;-77
2021/07/04 07:52:56;;;;;;;9.23;7.25;;;;;;;19.54;68.93;96315.36;1638736;86;21386;-80
2021/07/04 07:55:22;;;;;;;9.83;7.78;;;;;;;19.57;70.35;96310.44;1645645;86;20935;-78
2021/07/04 07:57:47;;;;;;;11.45;8.30;;;;;;;19.65;68.55;96306.06;1644642;85;21131;-77
2021/07/04 08:00:14;;;;;;;8.03;7.08;;;;;;;19.76;68.43;96308.34;1634683;86;20938;-77
2021/07/04 08:02:41;;;;;;;7.87;7.15;;;;;;;19.86;68.63;96301.91;1604703;88;21003;-80
2021/07/04 08:05:08;;;;;;;9.50;7.60;;;;;;;19.86;68.55;96303.75;1611567;88;20933;-79
2021/07/04 08:07:36;;;;;;;20.90;12.65;;;;;;;19.89;67.38;96306.70;1609026;88;20982;-80
2021/07/04 08:10:06;;;;;;;21.05;12.50;;;;;;;19.99;67.17;96307.34;1638265;86;21089;-79
2021/07/04 08:12:32;;;;;;;11.65;8.78;;;;;;;20.08;66.46;96301.95;1636342;86;21073;-79
2021/07/04 08:14:58;;;;;;;12.95;10.13;;;;;;;20.15;66.91;96297.28;1643433;86;21077;-80
2021/07/04 08:17:24;;;;;;;10.78;9.13;;;;;;;20.30;66.11;96292.20;1605926;87;21374;-80
2021/07/04 08:19:50;;;;;;;10.88;7.37;;;;;;;20.39;66.14;96289.95;1612167;87;21044;-80
2021/07/04 08:22:15;;;;;;;8.05;6.95;;;;;;;20.52;66.37;96287.50;1621151;86;21029;-80
2021/07/04 08:24:41;;;;;;;9.18;7.58;;;;;;;20.61;66.34;96293.92;1646680;86;21064;-80
2021/07/04 08:27:07;;;;;;;8.95;6.55;;;;;;;20.60;65.51;96293.64;1634164;87;21352;-80
2021/07/04 08:29:32;;;;;;;8.15;6.70;;;;;;;20.57;64.08;96300.74;1628666;87;21066;-80
2021/07/04 08:31:58;;;;;;;6.72;6.00;;;;;;;20.50;64.79;96290.88;1639428;87;20979;-79
2021/07/04 08:34:24;;;;;;;8.23;6.08;;;;;;;20.67;65.55;96288.47;1628116;87;21016;-80
2021/07/04 08:36:49;;;;;;;7.28;6.17;;;;;;;20.88;64.55;96289.99;1621213;87;21449;-80
2021/07/04 08:39:15;;;;;;;7.55;6.25;;;;;;;21.11;64.15;96287.56;1602848;88;21041;-79
2021/07/04 08:41:41;;;;;;;6.50;5.80;;;;;;;21.35;63.83;96286.77;1618915;87;21023;-80
2021/07/04 08:44:09;;;;;;;8.30;5.62;;;;;;;21.57;62.04;96290.09;1630425;87;21080;-80
2021/07/04 08:46:42;;;;;;;6.03;5.42;;;;;;;21.69;61.96;96286.75;1636073;87;21096;-80
2021/07/04 08:49:08;;;;;;;9.10;7.08;;;;;;;21.84;60.46;96284.73;1627916;87;21310;-80
2021/07/04 08:51:33;;;;;;;7.17;6.47;;;;;;;21.96;61.09;96289.81;1631197;87;20971;-80
2021/07/04 08:53:59;;;;;;;7.83;6.00;;;;;;;;;;1629875;86;20973;-80
2021/07/04 08:56:25;;;;;;;7.28;6.40;;;;;;;22.23;58.65;96281.80;1636319;86;20902;-80
2021/07/04 08:58:51;;;;;;;6.12;5.12;;;;;;;22.31;57.81;96285.30;1616595;87;20954;-80
2021/07/04 09:01:20;;;;;;;6.05;5.03;;;;;;;22.35;57.58;96273.92;1648715;86;21006;-80
2021/07/04 09:03:51;;;;;;;5.90;4.83;;;;;;;22.40;60.01;96275.26;1655823;85;20935;-80
2021/07/04 09:06:44;;;;;;;7.95;6.85;;;;;;;22.50;57.42;96269.22;1659066;86;21316;-80
2021/07/04 09:09:20;;;;;;;7.92;6.97;;;;;;;22.59;57.89;96268.97;1634950;85;21011;-80
2021/07/04 09:12:00;;;;;;;8.28;6.40;;;;;;;22.76;58.19;96268.22;1659668;85;20956;-80
2021/07/04 09:14:32;;;;;;;8.00;5.83;;;;;;;22.83;57.71;96262.72;1617833;85;20998;-80
2021/07/04 09:16:58;;;;;;;6.65;5.87;;;;;;;22.59;57.10;96264.99;1662063;85;21380;-80
2021/07/04 09:19:24;;;;;;;6.12;5.53;;;;;;;22.74;58.38;96262.91;1657750;85;20944;-80
2021/07/04 09:21:57;;;;;;;5.65;5.08;;;;;;;22.92;57.43;96265.63;1657912;85;20916;-80
2021/07/04 09:24:29;;;;;;;7.35;6.10;;;;;;;23.12;57.72;96252.95;1660498;85;21325;-80
2021/07/04 09:26:55;;;;;;;7.28;6.58;;;;;;;23.25;56.54;96256.39;1681846;84;21036;-80
2021/07/04 09:29:50;;;;;;;8.53;6.10;;;;;;;23.33;56.82;96251.90;1663322;84;21453;-80
2021/07/04 09:32:27;;;;;;;8.00;6.42;;;;;;;23.16;57.16;96257.46;1674805;85;21034;-80
2021/07/04 09:35:05;;;;;;;7.40;6.33;;;;;;;22.89;57.11;96268.28;1652160;85;21843;-80
2021/07/04 09:37:46;;;;;;;6.47;5.87;;;;;;;22.61;57.57;96257.58;1635457;85;21331;-80
2021/07/04 09:40:22;;;;;;;7.25;6.17;;;;;;;22.63;57.93;96254.17;1650254;85;20983;-80
2021/07/04 09:43:07;;;;;;;7.70;5.65;;;;;;;22.78;54.71;96256.06;1657540;85;20963;-80
2021/07/04 09:45:54;;;;;;;9.45;7.15;;;;;;;22.84;56.36;96248.94;1658820;85;21087;-80
2021/07/04 09:48:31;;;;;;;7.67;6.55;;;;;;;22.96;55.49;96249.50;1667566;85;21354;-80
2021/07/04 09:51:01;;;;;;;8.65;6.35;;;;;;;23.10;55.08;96246.57;1656394;85;20971;-79
2021/07/04 09:53:34;;;;;;;6.12;5.30;;;;;;;23.18;55.92;96246.06;1652467;85;21119;-80
2021/07/04 09:56:25;;;;;;;9.15;6.42;;;;;;;23.25;54.67;96245.78;1655380;85;21345;-80
2021/07/04 09:58:54;;;;;;;6.97;5.58;;;;;;;23.34;54.47;96248.98;1671204;85;21076;-81
2021/07/04 10:01:42;;;;;;;7.40;6.67;;;;;;;23.51;55.60;96247.38;1654112;85;20940;-79
2021/07/04 10:04:29;;;;;;;8.25;7.05;;;;;;;23.71;55.41;96247.11;1646169;85;20997;-80
2021/07/04 10:06:54;;;;;;;7.22;6.53;;;;;;;23.86;54.22;96236.47;1644735;85;21283;-79
2021/07/04 10:09:21;;;;;;;7.40;6.72;;;;;;;23.57;54.36;96231.74;1658018;85;20929;-80
2021/07/04 10:11:48;;;;;;;8.25;6.75;;;;;;;23.38;54.73;96226.70;1654536;85;20967;-80
2021/07/04 10:14:14;;;;;;;8.68;6.60;;;;;;;23.43;54.03;96229.87;1653346;86;21254;-80
2021/07/04 10:16:44;;;;;;;8.45;7.53;;;;;;;23.49;56.17;96231.47;1649226;85;21390;-80
2021/07/04 10:19:24;;;;;;;10.85;8.53;;;;;;;23.65;55.70;96229.89;1655306;85;20951;-80
2021/07/04 10:21:55;;;;;;;12.05;9.53;;;;;;;23.85;55.57;96221.62;1662465;85;21009;-80
2021/07/04 10:24:21;;;;;;;9.88;8.05;;;;;;;23.99;55.31;96217.33;1649159;85;21039;-80
2021/07/04 10:26:47;;;;;;;7.17;6.47;;;;;;;24.07;54.08;96217.30;1639719;85;21334;-80
2021/07/04 10:29:13;;;;;;;7.42;6.53;;;;;;;24.00;52.09;96213.61;1654796;85;20932;-80
2021/07/04 10:31:39;;;;;;;5.60;5.10;;;;;;;23.95;51.16;96207.00;1662227;85;20949;-80
2021/07/04 10:34:13;;;;;;;7.25;6.55;;;;;;;23.97;52.00;96197.44;1632868;86;21280;-80
2021/07/04 10:37:02;;;;;;;7.58;6.62;;;;;;;24.00;52.40;96196.36;1648545;85;20936;-80
2021/07/04 10:39:32;;;;;;;7.28;6.58;;;;;;;24.11;52.25;96198.45;1654204;85;20977;-80
2021/07/04 10:42:01;;;;;;;6.85;6.17;;;;;;;24.16;52.74;96189.13;1654389;86;20952;-80
2021/07/04 10:44:51;;;;;;;6.92;6.30;;;;;;;24.17;52.30;96191.52;1654227;85;20971;-80
2021/07/04 10:47:23;;;;;;;9.40;7.28;;;;;;;24.18;52.95;96197.61;1660057;85;21023;-80
2021/07/04 10:49:58;;;;;;;7.95;6.65;;;;;;;23.92;52.63;96189.77;1647871;85;21024;-80
2021/07/04 10:52:41;;;;;;;7.55;6.70;;;;;;;23.92;54.58;96182.34;1650518;85;21024;-81
2021/07/04 10:55:11;;;;;;;8.18;5.67;;;;;;;23.89;51.12;96184.98;1669480;85;21299;-80
2021/07/04 10:58:00;;;;;;;7.00;5.33;;;;;;;23.87;52.05;96187.64;1655838;85;21023;-80
2021/07/04 11:00:41;;;;;;;6.15;5.35;;;;;;;23.93;51.02;96191.36;1645224;85;21865;-80
2021/07/04 11:03:12;;;;;;;6.33;5.72;;;;;;;23.93;51.00;96178.62;1668204;85;21059;-80
2021/07/04 11:05:42;;;;;;;8.00;5.25;;;;;;;24.02;50.67;96173.00;1641133;86;21083;-80
2021/07/04 11:08:27;;;;;;;6.33;5.72;;;;;;;24.08;51.00;96174.58;1639855;86;21017;-79
2021/07/04 11:10:57;;;;;;;5.75;4.80;;;;;;;24.12;50.06;96166.86;1641229;86;20973;-80
2021/07/04 11:13:37;;;;;;;4.87;4.42;;;;;;;24.02;51.43;96170.88;1614658;88;20986;-80
2021/07/04 11:16:18;;;;;;;5.90;5.30;;;;;;;24.06;48.56;96162.09;1582784;87;21048;-80
2021/07/04 11:18:51;;;;;;;5.28;4.78;;;;;;;24.10;51.14;96161.03;1631960;86;20967;-80
2021/07/04 11:21:22;;;;;;;6.60;5.95;;;;;;;24.18;49.69;96166.55;1659894;86;21320;-80
2021/07/04 11:24:13;;;;;;;6.67;5.45;;;;;;;24.18;49.40;96163.11;1605785;86;21344;-80
2021/07/04 11:26:39;;;;;;;7.83;6.50;;;;;;;24.17;50.60;96157.00;1640329;86;21037;-80
2021/07/04 11:29:11;;;;;;;6.95;6.25;;;;;;;24.04;49.47;96153.61;1640255;86;21068;-80
2021/07/04 11:31:39;;;;;;;7.40;5.78;;;;;;;24.16;51.75;96158.61;1657459;86;21001;-80
2021/07/04 11:34:06;;;;;;;6.55;5.92;;;;;;;24.31;51.59;96145.82;1604520;86;21004;-80